sensor_id;sensor_type;location;lat;lon;timestamp;temperature;humidity
14877;DHT22;69691;48.172;17.070;2023-11-19T00:02:23;5.40;85.10
14877;DHT22;69691;48.172;17.070;2023-11-19T00:04:49;5.40;84.90
14877;DHT22;69691;48.172;17.070;2023-11-19T00:07:15;5.40;84.40
14877;DHT22;69691;48.172;17.070;2023-11-19T00:09:41;5.50;84.10
14877;DHT22;69691;48.172;17.070;2023-11-19T00:12:09;5.50;84.00
14877;DHT22;69691;48.172;17.070;2023-11-19T00:14:35;5.50;83.90
14877;DHT22;69691;48.172;17.070;2023-11-19T00:17:00;5.50;83.50
14877;DHT22;69691;48.172;17.070;2023-11-19T00:19:26;5.60;83.70
14877;DHT22;69691;48.172;17.070;2023-11-19T00:21:52;5.60;82.90
14877;DHT22;69691;48.172;17.070;2023-11-19T00:24:18;5.60;83.80
14877;DHT22;69691;48.172;17.070;2023-11-19T00:26:45;5.60;83.40
14877;DHT22;69691;48.172;17.070;2023-11-19T00:29:12;5.60;83.70
14877;DHT22;69691;48.172;17.070;2023-11-19T00:31:39;5.70;83.70
14877;DHT22;69691;48.172;17.070;2023-11-19T00:34:05;5.70;82.80
14877;DHT22;69691;48.172;17.070;2023-11-19T00:36:31;5.70;82.30
14877;DHT22;69691;48.172;17.070;2023-11-19T00:38:57;5.70;82.60
14877;DHT22;69691;48.172;17.070;2023-11-19T00:41:23;5.70;82.10
14877;DHT22;69691;48.172;17.070;2023-11-19T00:43:51;5.70;82.40
14877;DHT22;69691;48.172;17.070;2023-11-19T00:46:17;5.60;82.30
14877;DHT22;69691;48.172;17.070;2023-11-19T00:48:43;5.50;83.20
14877;DHT22;69691;48.172;17.070;2023-11-19T00:51:11;5.60;83.30
14877;DHT22;69691;48.172;17.070;2023-11-19T00:53:37;5.60;83.00
14877;DHT22;69691;48.172;17.070;2023-11-19T00:56:03;5.70;83.10
14877;DHT22;69691;48.172;17.070;2023-11-19T00:58:29;5.60;82.70
14877;DHT22;69691;48.172;17.070;2023-11-19T01:00:55;5.70;83.30
14877;DHT22;69691;48.172;17.070;2023-11-19T01:03:22;5.80;83.00
14877;DHT22;69691;48.172;17.070;2023-11-19T01:05:48;5.80;82.70
14877;DHT22;69691;48.172;17.070;2023-11-19T01:08:14;5.80;82.60
14877;DHT22;69691;48.172;17.070;2023-11-19T01:10:41;5.90;82.30
14877;DHT22;69691;48.172;17.070;2023-11-19T01:13:07;5.90;82.60
14877;DHT22;69691;48.172;17.070;2023-11-19T01:15:33;5.80;82.50
14877;DHT22;69691;48.172;17.070;2023-11-19T01:17:59;5.90;82.70
14877;DHT22;69691;48.172;17.070;2023-11-19T01:20:24;5.90;82.70
14877;DHT22;69691;48.172;17.070;2023-11-19T01:22:52;5.90;82.50
14877;DHT22;69691;48.172;17.070;2023-11-19T01:25:18;6.00;83.60
14877;DHT22;69691;48.172;17.070;2023-11-19T01:27:44;6.10;82.50
14877;DHT22;69691;48.172;17.070;2023-11-19T01:30:10;6.10;82.30
14877;DHT22;69691;48.172;17.070;2023-11-19T01:32:39;6.10;82.10
14877;DHT22;69691;48.172;17.070;2023-11-19T01:35:06;6.10;82.20
14877;DHT22;69691;48.172;17.070;2023-11-19T01:37:33;6.10;82.00
14877;DHT22;69691;48.172;17.070;2023-11-19T01:40:03;6.10;82.20
14877;DHT22;69691;48.172;17.070;2023-11-19T01:42:36;6.10;82.10
14877;DHT22;69691;48.172;17.070;2023-11-19T01:45:04;6.20;82.10
14877;DHT22;69691;48.172;17.070;2023-11-19T01:47:33;6.20;81.60
14877;DHT22;69691;48.172;17.070;2023-11-19T01:50:01;6.10;81.60
14877;DHT22;69691;48.172;17.070;2023-11-19T01:52:34;6.10;82.00
14877;DHT22;69691;48.172;17.070;2023-11-19T01:55:02;6.10;81.90
14877;DHT22;69691;48.172;17.070;2023-11-19T01:57:28;6.20;82.60
14877;DHT22;69691;48.172;17.070;2023-11-19T01:59:54;6.10;81.00
14877;DHT22;69691;48.172;17.070;2023-11-19T02:02:21;6.10;82.10
14877;DHT22;69691;48.172;17.070;2023-11-19T02:04:49;6.10;82.40
14877;DHT22;69691;48.172;17.070;2023-11-19T02:07:15;6.10;82.60
14877;DHT22;69691;48.172;17.070;2023-11-19T02:09:43;6.10;82.40
14877;DHT22;69691;48.172;17.070;2023-11-19T02:12:10;6.10;82.90
14877;DHT22;69691;48.172;17.070;2023-11-19T02:14:37;6.30;82.20
14877;DHT22;69691;48.172;17.070;2023-11-19T02:17:04;6.20;82.10
14877;DHT22;69691;48.172;17.070;2023-11-19T02:19:30;6.30;82.20
14877;DHT22;69691;48.172;17.070;2023-11-19T02:21:56;6.20;81.70
14877;DHT22;69691;48.172;17.070;2023-11-19T02:24:22;6.10;82.40
14877;DHT22;69691;48.172;17.070;2023-11-19T02:26:59;6.10;82.70
14877;DHT22;69691;48.172;17.070;2023-11-19T02:29:45;6.20;82.80
14877;DHT22;69691;48.172;17.070;2023-11-19T02:32:11;6.00;82.30
14877;DHT22;69691;48.172;17.070;2023-11-19T02:34:39;6.00;83.50
14877;DHT22;69691;48.172;17.070;2023-11-19T02:37:04;6.10;83.60
14877;DHT22;69691;48.172;17.070;2023-11-19T02:39:30;6.20;83.60
14877;DHT22;69691;48.172;17.070;2023-11-19T02:41:56;6.30;83.40
14877;DHT22;69691;48.172;17.070;2023-11-19T02:44:23;6.30;83.20
14877;DHT22;69691;48.172;17.070;2023-11-19T02:46:49;6.40;83.10
14877;DHT22;69691;48.172;17.070;2023-11-19T02:49:14;6.40;82.90
14877;DHT22;69691;48.172;17.070;2023-11-19T02:51:41;6.30;82.60
14877;DHT22;69691;48.172;17.070;2023-11-19T02:54:06;6.30;82.90
14877;DHT22;69691;48.172;17.070;2023-11-19T02:56:32;6.20;83.10
14877;DHT22;69691;48.172;17.070;2023-11-19T02:59:02;6.30;83.10
14877;DHT22;69691;48.172;17.070;2023-11-19T03:01:40;6.40;82.20
14877;DHT22;69691;48.172;17.070;2023-11-19T03:04:09;6.50;82.00
14877;DHT22;69691;48.172;17.070;2023-11-19T03:06:37;6.60;81.30
14877;DHT22;69691;48.172;17.070;2023-11-19T03:09:04;6.70;80.80
14877;DHT22;69691;48.172;17.070;2023-11-19T03:11:35;6.70;80.30
14877;DHT22;69691;48.172;17.070;2023-11-19T03:14:02;6.80;80.40
14877;DHT22;69691;48.172;17.070;2023-11-19T03:16:30;6.80;81.20
14877;DHT22;69691;48.172;17.070;2023-11-19T03:18:56;6.80;80.20
14877;DHT22;69691;48.172;17.070;2023-11-19T03:21:29;6.80;80.40
14877;DHT22;69691;48.172;17.070;2023-11-19T03:23:57;6.80;80.20
14877;DHT22;69691;48.172;17.070;2023-11-19T03:26:27;6.80;80.30
14877;DHT22;69691;48.172;17.070;2023-11-19T03:28:53;6.80;80.80
14877;DHT22;69691;48.172;17.070;2023-11-19T03:31:20;6.70;80.90
14877;DHT22;69691;48.172;17.070;2023-11-19T03:33:46;6.70;80.90
14877;DHT22;69691;48.172;17.070;2023-11-19T03:36:12;6.80;81.00
14877;DHT22;69691;48.172;17.070;2023-11-19T03:38:38;6.80;80.80
14877;DHT22;69691;48.172;17.070;2023-11-19T03:41:22;6.80;80.40
14877;DHT22;69691;48.172;17.070;2023-11-19T03:43:48;6.90;80.50
14877;DHT22;69691;48.172;17.070;2023-11-19T03:46:20;6.90;80.40
14877;DHT22;69691;48.172;17.070;2023-11-19T03:48:50;6.90;80.40
14877;DHT22;69691;48.172;17.070;2023-11-19T03:51:16;6.80;80.70
14877;DHT22;69691;48.172;17.070;2023-11-19T03:53:43;6.80;80.80
14877;DHT22;69691;48.172;17.070;2023-11-19T03:56:10;6.80;81.00
14877;DHT22;69691;48.172;17.070;2023-11-19T03:58:37;6.80;81.20
14877;DHT22;69691;48.172;17.070;2023-11-19T04:01:11;6.80;81.10
14877;DHT22;69691;48.172;17.070;2023-11-19T04:03:40;7.00;80.90
14877;DHT22;69691;48.172;17.070;2023-11-19T04:06:06;7.00;80.00
14877;DHT22;69691;48.172;17.070;2023-11-19T04:08:32;7.10;79.00
14877;DHT22;69691;48.172;17.070;2023-11-19T04:10:58;7.10;78.50
14877;DHT22;69691;48.172;17.070;2023-11-19T04:13:24;7.20;78.40
14877;DHT22;69691;48.172;17.070;2023-11-19T04:15:50;7.20;78.20
14877;DHT22;69691;48.172;17.070;2023-11-19T04:18:16;7.20;77.80
14877;DHT22;69691;48.172;17.070;2023-11-19T04:20:42;7.10;77.40
14877;DHT22;69691;48.172;17.070;2023-11-19T04:23:08;7.10;77.70
14877;DHT22;69691;48.172;17.070;2023-11-19T04:25:35;7.10;77.10
14877;DHT22;69691;48.172;17.070;2023-11-19T04:28:01;7.10;77.30
14877;DHT22;69691;48.172;17.070;2023-11-19T04:30:28;7.20;76.90
14877;DHT22;69691;48.172;17.070;2023-11-19T04:32:54;7.10;75.50
14877;DHT22;69691;48.172;17.070;2023-11-19T04:35:20;7.10;75.60
14877;DHT22;69691;48.172;17.070;2023-11-19T04:37:46;7.10;75.20
14877;DHT22;69691;48.172;17.070;2023-11-19T04:40:13;7.10;74.90
14877;DHT22;69691;48.172;17.070;2023-11-19T04:42:39;7.00;74.40
14877;DHT22;69691;48.172;17.070;2023-11-19T04:45:06;7.00;74.60
14877;DHT22;69691;48.172;17.070;2023-11-19T04:47:33;7.10;74.70
14877;DHT22;69691;48.172;17.070;2023-11-19T04:50:00;7.10;74.00
14877;DHT22;69691;48.172;17.070;2023-11-19T04:52:25;7.10;74.30
14877;DHT22;69691;48.172;17.070;2023-11-19T04:54:51;7.20;73.80
14877;DHT22;69691;48.172;17.070;2023-11-19T04:57:18;7.20;74.00
14877;DHT22;69691;48.172;17.070;2023-11-19T04:59:43;7.20;74.10
14877;DHT22;69691;48.172;17.070;2023-11-19T05:02:09;7.10;75.20
14877;DHT22;69691;48.172;17.070;2023-11-19T05:04:35;7.10;75.30
14877;DHT22;69691;48.172;17.070;2023-11-19T05:07:01;7.20;75.50
14877;DHT22;69691;48.172;17.070;2023-11-19T05:09:27;7.20;75.40
14877;DHT22;69691;48.172;17.070;2023-11-19T05:11:52;7.20;75.30
14877;DHT22;69691;48.172;17.070;2023-11-19T05:14:19;7.10;76.20
14877;DHT22;69691;48.172;17.070;2023-11-19T05:16:46;7.00;77.90
14877;DHT22;69691;48.172;17.070;2023-11-19T05:19:12;7.00;78.20
14877;DHT22;69691;48.172;17.070;2023-11-19T05:21:37;7.00;77.80
14877;DHT22;69691;48.172;17.070;2023-11-19T05:24:03;7.10;78.40
14877;DHT22;69691;48.172;17.070;2023-11-19T05:26:32;7.00;78.80
14877;DHT22;69691;48.172;17.070;2023-11-19T05:28:58;7.10;79.60
14877;DHT22;69691;48.172;17.070;2023-11-19T05:31:24;7.00;79.10
14877;DHT22;69691;48.172;17.070;2023-11-19T05:33:49;6.90;80.00
14877;DHT22;69691;48.172;17.070;2023-11-19T05:36:15;6.80;79.90
14877;DHT22;69691;48.172;17.070;2023-11-19T05:38:41;6.80;80.40
14877;DHT22;69691;48.172;17.070;2023-11-19T05:41:07;6.80;80.90
14877;DHT22;69691;48.172;17.070;2023-11-19T05:43:33;6.70;80.70
14877;DHT22;69691;48.172;17.070;2023-11-19T05:45:59;6.60;81.80
14877;DHT22;69691;48.172;17.070;2023-11-19T05:48:26;6.60;82.20
14877;DHT22;69691;48.172;17.070;2023-11-19T05:50:52;6.40;82.40
14877;DHT22;69691;48.172;17.070;2023-11-19T05:53:17;6.30;83.90
14877;DHT22;69691;48.172;17.070;2023-11-19T05:55:43;6.30;83.90
14877;DHT22;69691;48.172;17.070;2023-11-19T05:58:22;6.20;84.10
14877;DHT22;69691;48.172;17.070;2023-11-19T06:00:49;6.00;84.10
14877;DHT22;69691;48.172;17.070;2023-11-19T06:03:16;6.00;84.70
14877;DHT22;69691;48.172;17.070;2023-11-19T06:05:44;5.90;85.40
14877;DHT22;69691;48.172;17.070;2023-11-19T06:08:11;6.00;85.90
14877;DHT22;69691;48.172;17.070;2023-11-19T06:10:42;6.00;85.30
14877;DHT22;69691;48.172;17.070;2023-11-19T06:13:08;6.10;85.70
14877;DHT22;69691;48.172;17.070;2023-11-19T06:15:35;6.10;85.50
14877;DHT22;69691;48.172;17.070;2023-11-19T06:18:02;6.00;85.20
14877;DHT22;69691;48.172;17.070;2023-11-19T06:20:32;5.90;85.50
14877;DHT22;69691;48.172;17.070;2023-11-19T06:22:59;5.90;86.80
14877;DHT22;69691;48.172;17.070;2023-11-19T06:25:25;5.80;86.10
14877;DHT22;69691;48.172;17.070;2023-11-19T06:27:52;5.70;86.50
14877;DHT22;69691;48.172;17.070;2023-11-19T06:30:18;5.60;87.10
14877;DHT22;69691;48.172;17.070;2023-11-19T06:32:45;5.70;88.20
14877;DHT22;69691;48.172;17.070;2023-11-19T06:35:11;5.80;87.70
14877;DHT22;69691;48.172;17.070;2023-11-19T06:37:40;5.80;88.40
14877;DHT22;69691;48.172;17.070;2023-11-19T06:40:07;5.90;88.20
14877;DHT22;69691;48.172;17.070;2023-11-19T06:42:37;5.90;88.50
14877;DHT22;69691;48.172;17.070;2023-11-19T06:45:04;6.00;88.90
14877;DHT22;69691;48.172;17.070;2023-11-19T06:47:31;5.90;88.30
14877;DHT22;69691;48.172;17.070;2023-11-19T06:49:58;6.00;89.50
14877;DHT22;69691;48.172;17.070;2023-11-19T06:52:24;6.10;89.10
14877;DHT22;69691;48.172;17.070;2023-11-19T06:54:50;6.20;89.30
14877;DHT22;69691;48.172;17.070;2023-11-19T06:57:16;6.30;89.30
14877;DHT22;69691;48.172;17.070;2023-11-19T06:59:42;6.40;88.90
14877;DHT22;69691;48.172;17.070;2023-11-19T07:02:08;6.40;89.20
14877;DHT22;69691;48.172;17.070;2023-11-19T07:04:34;6.50;88.90
14877;DHT22;69691;48.172;17.070;2023-11-19T07:07:00;6.50;88.40
14877;DHT22;69691;48.172;17.070;2023-11-19T07:09:26;6.40;88.60
14877;DHT22;69691;48.172;17.070;2023-11-19T07:11:52;6.30;88.80
14877;DHT22;69691;48.172;17.070;2023-11-19T07:14:19;6.30;89.40
14877;DHT22;69691;48.172;17.070;2023-11-19T07:16:45;6.30;90.00
14877;DHT22;69691;48.172;17.070;2023-11-19T07:19:12;6.40;90.10
14877;DHT22;69691;48.172;17.070;2023-11-19T07:21:41;6.40;90.00
14877;DHT22;69691;48.172;17.070;2023-11-19T07:24:12;6.60;90.00
14877;DHT22;69691;48.172;17.070;2023-11-19T07:26:46;6.60;89.60
14877;DHT22;69691;48.172;17.070;2023-11-19T07:29:15;6.50;89.40
14877;DHT22;69691;48.172;17.070;2023-11-19T07:31:44;6.50;89.70
14877;DHT22;69691;48.172;17.070;2023-11-19T07:34:10;6.40;90.20
14877;DHT22;69691;48.172;17.070;2023-11-19T07:36:37;6.50;90.20
14877;DHT22;69691;48.172;17.070;2023-11-19T07:39:04;6.40;90.00
14877;DHT22;69691;48.172;17.070;2023-11-19T07:41:31;6.30;90.30
14877;DHT22;69691;48.172;17.070;2023-11-19T07:43:57;6.30;90.20
14877;DHT22;69691;48.172;17.070;2023-11-19T07:46:22;6.20;90.40
14877;DHT22;69691;48.172;17.070;2023-11-19T07:48:48;6.30;90.80
14877;DHT22;69691;48.172;17.070;2023-11-19T07:51:14;6.50;90.90
14877;DHT22;69691;48.172;17.070;2023-11-19T07:53:41;6.60;90.60
14877;DHT22;69691;48.172;17.070;2023-11-19T07:56:08;6.70;90.60
14877;DHT22;69691;48.172;17.070;2023-11-19T07:58:34;6.90;90.30
14877;DHT22;69691;48.172;17.070;2023-11-19T08:01:00;6.70;89.90
14877;DHT22;69691;48.172;17.070;2023-11-19T08:03:27;6.80;90.00
14877;DHT22;69691;48.172;17.070;2023-11-19T08:05:58;6.70;90.30
14877;DHT22;69691;48.172;17.070;2023-11-19T08:08:23;6.60;90.30
14877;DHT22;69691;48.172;17.070;2023-11-19T08:10:49;6.70;90.40
14877;DHT22;69691;48.172;17.070;2023-11-19T08:13:18;6.80;90.30
14877;DHT22;69691;48.172;17.070;2023-11-19T08:15:45;6.90;90.50
14877;DHT22;69691;48.172;17.070;2023-11-19T08:18:11;7.00;90.30
14877;DHT22;69691;48.172;17.070;2023-11-19T08:20:37;7.00;90.30
14877;DHT22;69691;48.172;17.070;2023-11-19T08:23:03;7.20;90.50
14877;DHT22;69691;48.172;17.070;2023-11-19T08:25:29;7.40;90.30
14877;DHT22;69691;48.172;17.070;2023-11-19T08:27:55;7.50;90.10
14877;DHT22;69691;48.172;17.070;2023-11-19T08:30:21;7.60;89.50
14877;DHT22;69691;48.172;17.070;2023-11-19T08:32:46;7.80;90.20
14877;DHT22;69691;48.172;17.070;2023-11-19T08:35:12;7.90;89.90
14877;DHT22;69691;48.172;17.070;2023-11-19T08:37:38;8.10;89.00
14877;DHT22;69691;48.172;17.070;2023-11-19T08:40:04;8.10;87.50
14877;DHT22;69691;48.172;17.070;2023-11-19T08:42:31;8.20;88.00
14877;DHT22;69691;48.172;17.070;2023-11-19T08:44:56;8.20;86.80
14877;DHT22;69691;48.172;17.070;2023-11-19T08:47:22;8.20;87.00
14877;DHT22;69691;48.172;17.070;2023-11-19T08:49:53;8.20;86.60
14877;DHT22;69691;48.172;17.070;2023-11-19T08:52:20;8.10;86.70
14877;DHT22;69691;48.172;17.070;2023-11-19T08:54:46;8.20;87.50
14877;DHT22;69691;48.172;17.070;2023-11-19T08:57:12;8.20;86.80
14877;DHT22;69691;48.172;17.070;2023-11-19T08:59:38;8.20;85.00
14877;DHT22;69691;48.172;17.070;2023-11-19T09:02:05;8.30;85.50
14877;DHT22;69691;48.172;17.070;2023-11-19T09:04:32;8.20;85.20
14877;DHT22;69691;48.172;17.070;2023-11-19T09:06:58;8.10;85.30
14877;DHT22;69691;48.172;17.070;2023-11-19T09:09:24;8.20;85.60
14877;DHT22;69691;48.172;17.070;2023-11-19T09:11:49;8.20;86.60
14877;DHT22;69691;48.172;17.070;2023-11-19T09:14:15;8.30;85.60
14877;DHT22;69691;48.172;17.070;2023-11-19T09:16:41;8.20;84.60
14877;DHT22;69691;48.172;17.070;2023-11-19T09:19:07;8.30;84.10
14877;DHT22;69691;48.172;17.070;2023-11-19T09:21:32;8.50;84.10
14877;DHT22;69691;48.172;17.070;2023-11-19T09:24:02;8.70;84.20
14877;DHT22;69691;48.172;17.070;2023-11-19T09:26:28;8.80;84.10
14877;DHT22;69691;48.172;17.070;2023-11-19T09:28:53;9.10;83.90
14877;DHT22;69691;48.172;17.070;2023-11-19T09:31:19;9.40;82.30
14877;DHT22;69691;48.172;17.070;2023-11-19T09:33:45;9.50;81.60
14877;DHT22;69691;48.172;17.070;2023-11-19T09:36:14;9.50;81.10
14877;DHT22;69691;48.172;17.070;2023-11-19T09:38:45;9.50;80.70
14877;DHT22;69691;48.172;17.070;2023-11-19T09:41:11;9.50;80.30
14877;DHT22;69691;48.172;17.070;2023-11-19T09:43:40;9.40;80.70
14877;DHT22;69691;48.172;17.070;2023-11-19T09:46:09;9.50;80.10
14877;DHT22;69691;48.172;17.070;2023-11-19T09:48:39;9.50;80.20
14877;DHT22;69691;48.172;17.070;2023-11-19T09:51:08;9.50;79.40
14877;DHT22;69691;48.172;17.070;2023-11-19T09:53:37;9.50;78.40
14877;DHT22;69691;48.172;17.070;2023-11-19T09:56:04;9.60;78.20
14877;DHT22;69691;48.172;17.070;2023-11-19T09:58:32;9.60;78.10
14877;DHT22;69691;48.172;17.070;2023-11-19T10:00:59;9.50;77.40
14877;DHT22;69691;48.172;17.070;2023-11-19T10:03:32;9.70;77.60
14877;DHT22;69691;48.172;17.070;2023-11-19T10:06:01;9.90;77.40
14877;DHT22;69691;48.172;17.070;2023-11-19T10:08:29;9.80;76.30
14877;DHT22;69691;48.172;17.070;2023-11-19T10:10:55;9.70;75.80
14877;DHT22;69691;48.172;17.070;2023-11-19T10:13:26;9.60;76.20
14877;DHT22;69691;48.172;17.070;2023-11-19T10:15:53;9.50;76.90
14877;DHT22;69691;48.172;17.070;2023-11-19T10:18:24;9.30;76.00
14877;DHT22;69691;48.172;17.070;2023-11-19T10:20:53;9.40;77.10
14877;DHT22;69691;48.172;17.070;2023-11-19T10:23:20;9.30;75.80
14877;DHT22;69691;48.172;17.070;2023-11-19T10:25:46;9.10;75.70
14877;DHT22;69691;48.172;17.070;2023-11-19T10:28:15;9.20;76.30
14877;DHT22;69691;48.172;17.070;2023-11-19T10:30:42;9.20;75.70
14877;DHT22;69691;48.172;17.070;2023-11-19T10:33:09;9.00;76.40
14877;DHT22;69691;48.172;17.070;2023-11-19T10:35:54;8.90;76.60
14877;DHT22;69691;48.172;17.070;2023-11-19T10:38:22;9.00;77.30
14877;DHT22;69691;48.172;17.070;2023-11-19T10:40:49;8.90;76.50
14877;DHT22;69691;48.172;17.070;2023-11-19T10:43:20;8.80;77.10
14877;DHT22;69691;48.172;17.070;2023-11-19T10:45:49;8.90;77.50
14877;DHT22;69691;48.172;17.070;2023-11-19T10:48:15;8.70;77.20
14877;DHT22;69691;48.172;17.070;2023-11-19T10:50:42;8.70;77.80
14877;DHT22;69691;48.172;17.070;2023-11-19T10:53:11;8.50;78.30
14877;DHT22;69691;48.172;17.070;2023-11-19T10:55:39;8.60;79.00
14877;DHT22;69691;48.172;17.070;2023-11-19T10:58:06;8.70;78.60
14877;DHT22;69691;48.172;17.070;2023-11-19T11:00:45;8.80;78.70
14877;DHT22;69691;48.172;17.070;2023-11-19T11:03:19;8.80;78.30
14877;DHT22;69691;48.172;17.070;2023-11-19T11:05:50;8.90;78.50
14877;DHT22;69691;48.172;17.070;2023-11-19T11:08:17;8.90;78.30
14877;DHT22;69691;48.172;17.070;2023-11-19T11:10:54;8.90;76.90
14877;DHT22;69691;48.172;17.070;2023-11-19T11:13:25;8.90;78.20
14877;DHT22;69691;48.172;17.070;2023-11-19T11:15:55;8.80;77.10
14877;DHT22;69691;48.172;17.070;2023-11-19T11:18:23;8.50;77.20
14877;DHT22;69691;48.172;17.070;2023-11-19T11:21:14;8.40;78.30
14877;DHT22;69691;48.172;17.070;2023-11-19T11:24:14;8.40;78.60
14877;DHT22;69691;48.172;17.070;2023-11-19T11:27:32;8.60;79.10
14877;DHT22;69691;48.172;17.070;2023-11-19T11:30:45;8.50;78.70
14877;DHT22;69691;48.172;17.070;2023-11-19T11:33:36;8.50;78.70
14877;DHT22;69691;48.172;17.070;2023-11-19T11:36:20;8.50;79.10
14877;DHT22;69691;48.172;17.070;2023-11-19T11:38:49;8.70;79.40
14877;DHT22;69691;48.172;17.070;2023-11-19T11:41:15;8.70;78.70
14877;DHT22;69691;48.172;17.070;2023-11-19T11:43:49;8.80;79.40
14877;DHT22;69691;48.172;17.070;2023-11-19T11:49:04;8.70;77.80
14877;DHT22;69691;48.172;17.070;2023-11-19T11:54:25;8.60;77.30
14877;DHT22;69691;48.172;17.070;2023-11-19T11:57:09;8.40;78.60
14877;DHT22;69691;48.172;17.070;2023-11-19T11:59:46;8.40;78.80
14877;DHT22;69691;48.172;17.070;2023-11-19T12:02:20;8.50;79.50
14877;DHT22;69691;48.172;17.070;2023-11-19T12:04:51;8.50;78.70
14877;DHT22;69691;48.172;17.070;2023-11-19T12:07:22;8.60;79.30
14877;DHT22;69691;48.172;17.070;2023-11-19T12:10:09;8.70;79.00
14877;DHT22;69691;48.172;17.070;2023-11-19T12:12:37;8.70;77.60
14877;DHT22;69691;48.172;17.070;2023-11-19T12:15:07;8.70;78.40
14877;DHT22;69691;48.172;17.070;2023-11-19T12:17:47;8.80;78.20
14877;DHT22;69691;48.172;17.070;2023-11-19T12:20:15;8.80;78.50
14877;DHT22;69691;48.172;17.070;2023-11-19T12:22:43;8.90;78.50
14877;DHT22;69691;48.172;17.070;2023-11-19T12:25:11;9.00;78.80
14877;DHT22;69691;48.172;17.070;2023-11-19T12:27:45;9.00;79.00
14877;DHT22;69691;48.172;17.070;2023-11-19T12:30:14;9.00;78.90
14877;DHT22;69691;48.172;17.070;2023-11-19T12:32:45;9.10;80.20
14877;DHT22;69691;48.172;17.070;2023-11-19T12:35:12;9.10;80.00
14877;DHT22;69691;48.172;17.070;2023-11-19T12:37:45;9.00;79.10
14877;DHT22;69691;48.172;17.070;2023-11-19T12:40:16;8.80;79.00
14877;DHT22;69691;48.172;17.070;2023-11-19T12:42:53;8.80;80.10
14877;DHT22;69691;48.172;17.070;2023-11-19T12:45:20;8.90;80.30
14877;DHT22;69691;48.172;17.070;2023-11-19T12:47:49;9.00;80.90
14877;DHT22;69691;48.172;17.070;2023-11-19T12:50:18;9.20;80.60
14877;DHT22;69691;48.172;17.070;2023-11-19T12:52:55;9.10;79.90
14877;DHT22;69691;48.172;17.070;2023-11-19T12:55:28;9.00;80.40
14877;DHT22;69691;48.172;17.070;2023-11-19T12:57:56;9.10;81.30
14877;DHT22;69691;48.172;17.070;2023-11-19T13:00:24;9.20;81.80
14877;DHT22;69691;48.172;17.070;2023-11-19T13:02:53;9.20;81.30
14877;DHT22;69691;48.172;17.070;2023-11-19T13:07:48;9.20;81.40
14877;DHT22;69691;48.172;17.070;2023-11-19T13:10:14;9.20;81.40
14877;DHT22;69691;48.172;17.070;2023-11-19T13:12:40;9.10;81.60
14877;DHT22;69691;48.172;17.070;2023-11-19T13:15:07;9.20;81.60
14877;DHT22;69691;48.172;17.070;2023-11-19T13:17:48;9.30;81.20
14877;DHT22;69691;48.172;17.070;2023-11-19T13:20:14;9.20;81.20
14877;DHT22;69691;48.172;17.070;2023-11-19T13:23:03;9.20;81.60
14877;DHT22;69691;48.172;17.070;2023-11-19T13:25:30;9.20;81.90
14877;DHT22;69691;48.172;17.070;2023-11-19T13:27:58;9.20;82.20
14877;DHT22;69691;48.172;17.070;2023-11-19T13:30:25;9.20;82.50
14877;DHT22;69691;48.172;17.070;2023-11-19T13:32:52;9.30;82.20
14877;DHT22;69691;48.172;17.070;2023-11-19T13:35:20;9.10;82.50
14877;DHT22;69691;48.172;17.070;2023-11-19T13:37:47;9.10;84.00
14877;DHT22;69691;48.172;17.070;2023-11-19T13:40:13;9.00;83.50
14877;DHT22;69691;48.172;17.070;2023-11-19T13:42:43;9.00;83.20
14877;DHT22;69691;48.172;17.070;2023-11-19T13:45:13;9.00;83.50
14877;DHT22;69691;48.172;17.070;2023-11-19T13:47:44;9.00;84.10
14877;DHT22;69691;48.172;17.070;2023-11-19T13:50:12;9.10;83.90
14877;DHT22;69691;48.172;17.070;2023-11-19T13:52:40;9.10;83.70
14877;DHT22;69691;48.172;17.070;2023-11-19T13:55:09;9.00;83.60
14877;DHT22;69691;48.172;17.070;2023-11-19T13:57:36;9.10;84.10
14877;DHT22;69691;48.172;17.070;2023-11-19T14:00:03;9.00;84.20
14877;DHT22;69691;48.172;17.070;2023-11-19T14:02:46;8.90;84.70
14877;DHT22;69691;48.172;17.070;2023-11-19T14:05:13;8.80;85.40
14877;DHT22;69691;48.172;17.070;2023-11-19T14:07:40;8.70;85.40
14877;DHT22;69691;48.172;17.070;2023-11-19T14:10:08;8.60;86.10
14877;DHT22;69691;48.172;17.070;2023-11-19T14:12:37;8.60;86.40
14877;DHT22;69691;48.172;17.070;2023-11-19T14:15:08;8.70;86.20
14877;DHT22;69691;48.172;17.070;2023-11-19T14:17:36;8.80;86.80
14877;DHT22;69691;48.172;17.070;2023-11-19T14:20:02;8.70;86.30
14877;DHT22;69691;48.172;17.070;2023-11-19T14:22:42;8.70;86.60
14877;DHT22;69691;48.172;17.070;2023-11-19T14:25:10;8.60;87.10
14877;DHT22;69691;48.172;17.070;2023-11-19T14:27:40;8.60;87.30
14877;DHT22;69691;48.172;17.070;2023-11-19T14:30:09;8.60;87.20
14877;DHT22;69691;48.172;17.070;2023-11-19T14:32:40;8.50;87.10
14877;DHT22;69691;48.172;17.070;2023-11-19T14:35:08;8.60;87.20
14877;DHT22;69691;48.172;17.070;2023-11-19T14:37:34;8.60;87.50
14877;DHT22;69691;48.172;17.070;2023-11-19T14:40:00;8.50;87.50
14877;DHT22;69691;48.172;17.070;2023-11-19T14:42:27;8.60;87.90
14877;DHT22;69691;48.172;17.070;2023-11-19T14:44:53;8.50;87.60
14877;DHT22;69691;48.172;17.070;2023-11-19T14:47:20;8.50;87.10
14877;DHT22;69691;48.172;17.070;2023-11-19T14:49:45;8.40;87.90
14877;DHT22;69691;48.172;17.070;2023-11-19T14:52:11;8.50;88.20
14877;DHT22;69691;48.172;17.070;2023-11-19T14:54:38;8.30;87.30
14877;DHT22;69691;48.172;17.070;2023-11-19T14:57:05;8.20;88.30
14877;DHT22;69691;48.172;17.070;2023-11-19T14:59:32;8.30;89.00
14877;DHT22;69691;48.172;17.070;2023-11-19T15:01:58;8.30;88.60
14877;DHT22;69691;48.172;17.070;2023-11-19T15:04:26;8.40;89.60
14877;DHT22;69691;48.172;17.070;2023-11-19T15:06:52;8.30;89.30
14877;DHT22;69691;48.172;17.070;2023-11-19T15:09:19;8.30;89.60
14877;DHT22;69691;48.172;17.070;2023-11-19T15:11:46;8.30;89.20
14877;DHT22;69691;48.172;17.070;2023-11-19T15:14:13;8.20;89.40
14877;DHT22;69691;48.172;17.070;2023-11-19T15:16:45;8.30;89.70
14877;DHT22;69691;48.172;17.070;2023-11-19T15:19:12;8.30;89.40
14877;DHT22;69691;48.172;17.070;2023-11-19T15:21:40;8.20;89.20
14877;DHT22;69691;48.172;17.070;2023-11-19T15:24:08;8.10;90.20
14877;DHT22;69691;48.172;17.070;2023-11-19T15:26:35;8.10;90.00
14877;DHT22;69691;48.172;17.070;2023-11-19T15:29:01;8.10;89.50
14877;DHT22;69691;48.172;17.070;2023-11-19T15:31:28;8.00;89.90
14877;DHT22;69691;48.172;17.070;2023-11-19T15:33:54;8.10;90.00
14877;DHT22;69691;48.172;17.070;2023-11-19T15:36:20;8.20;89.80
14877;DHT22;69691;48.172;17.070;2023-11-19T15:38:46;8.10;89.40
14877;DHT22;69691;48.172;17.070;2023-11-19T15:41:12;8.10;90.10
14877;DHT22;69691;48.172;17.070;2023-11-19T15:43:38;8.10;90.10
14877;DHT22;69691;48.172;17.070;2023-11-19T15:46:08;8.00;89.70